sensor_id;sensor_type;location;lat;lon;timestamp;pressure;altitude;pressure_sealevel;temperature;humidity
20023;BME280;10172;42.054;24.546;2023-01-30T00:00:27;98524.13;;;4.81;93.33
20023;BME280;10172;42.054;24.546;2023-01-30T00:02:53;98521.56;;;5.42;90.63
20023;BME280;10172;42.054;24.546;2023-01-30T00:05:18;98526.31;;;5.54;89.43
20023;BME280;10172;42.054;24.546;2023-01-30T00:07:46;98533.69;;;5.26;88.46
20023;BME280;10172;42.054;24.546;2023-01-30T00:10:12;98527.72;;;5.01;91.86
20023;BME280;10172;42.054;24.546;2023-01-30T00:12:37;98520.13;;;4.51;90.96
20023;BME280;10172;42.054;24.546;2023-01-30T00:15:03;98540.53;;;5.30;90.93
20023;BME280;10172;42.054;24.546;2023-01-30T00:17:29;98537.72;;;4.28;95.07
20023;BME280;10172;42.054;24.546;2023-01-30T00:19:54;98500.69;;;3.39;96.68
20023;BME280;10172;42.054;24.546;2023-01-30T00:22:20;98480.22;;;2.19;100.00
20023;BME280;10172;42.054;24.546;2023-01-30T00:24:46;98529.41;;;2.68;100.00
20023;BME280;10172;42.054;24.546;2023-01-30T00:27:11;98512.47;;;3.29;100.00
20023;BME280;10172;42.054;24.546;2023-01-30T00:29:37;98526.09;;;2.89;100.00
20023;BME280;10172;42.054;24.546;2023-01-30T00:32:02;98530.56;;;3.12;100.00
20023;BME280;10172;42.054;24.546;2023-01-30T00:34:28;98526.66;;;2.73;100.00
20023;BME280;10172;42.054;24.546;2023-01-30T00:36:53;98527.53;;;3.24;100.00
20023;BME280;10172;42.054;24.546;2023-01-30T00:39:19;98518.00;;;2.95;100.00
20023;BME280;10172;42.054;24.546;2023-01-30T00:41:44;98522.63;;;2.89;100.00
20023;BME280;10172;42.054;24.546;2023-01-30T00:44:28;98537.84;;;2.52;100.00
20023;BME280;10172;42.054;24.546;2023-01-30T00:47:12;98499.28;;;2.54;100.00
20023;BME280;10172;42.054;24.546;2023-01-30T00:49:37;98541.97;;;3.37;100.00
20023;BME280;10172;42.054;24.546;2023-01-30T00:52:03;98533.53;;;2.77;100.00
20023;BME280;10172;42.054;24.546;2023-01-30T00:54:29;98537.13;;;2.47;100.00
20023;BME280;10172;42.054;24.546;2023-01-30T00:56:55;98527.72;;;2.67;100.00
20023;BME280;10172;42.054;24.546;2023-01-30T00:59:20;98528.47;;;3.22;99.39
20023;BME280;10172;42.054;24.546;2023-01-30T01:01:46;98527.16;;;3.10;99.62
20023;BME280;10172;42.054;24.546;2023-01-30T01:04:12;98514.53;;;2.69;100.00
20023;BME280;10172;42.054;24.546;2023-01-30T01:06:38;98525.94;;;2.68;100.00
20023;BME280;10172;42.054;24.546;2023-01-30T01:09:04;98519.50;;;2.22;100.00
20023;BME280;10172;42.054;24.546;2023-01-30T01:11:30;98498.84;;;2.12;100.00
20023;BME280;10172;42.054;24.546;2023-01-30T01:13:58;98515.28;;;2.18;100.00
20023;BME280;10172;42.054;24.546;2023-01-30T01:16:24;98503.00;;;2.19;100.00
20023;BME280;10172;42.054;24.546;2023-01-30T01:18:51;98519.50;;;2.22;100.00
20023;BME280;10172;42.054;24.546;2023-01-30T01:21:17;98523.03;;;2.49;100.00
20023;BME280;10172;42.054;24.546;2023-01-30T01:23:43;98512.91;;;2.11;100.00
20023;BME280;10172;42.054;24.546;2023-01-30T01:26:13;98504.28;;;2.06;100.00
20023;BME280;10172;42.054;24.546;2023-01-30T01:28:38;98505.03;;;2.11;100.00
20023;BME280;10172;42.054;24.546;2023-01-30T01:31:12;98480.84;;;2.27;100.00
20023;BME280;10172;42.054;24.546;2023-01-30T01:33:38;98518.69;;;2.20;100.00
20023;BME280;10172;42.054;24.546;2023-01-30T01:36:04;98527.47;;;2.47;100.00
20023;BME280;10172;42.054;24.546;2023-01-30T01:38:30;98516.16;;;2.17;100.00
20023;BME280;10172;42.054;24.546;2023-01-30T01:40:56;98443.16;;;1.74;100.00
20023;BME280;10172;42.054;24.546;2023-01-30T01:43:32;98476.66;;;1.94;100.00
20023;BME280;10172;42.054;24.546;2023-01-30T01:49:11;98489.72;;;1.96;100.00
20023;BME280;10172;42.054;24.546;2023-01-30T01:51:38;98501.56;;;2.36;100.00
20023;BME280;10172;42.054;24.546;2023-01-30T01:54:09;98499.09;;;2.04;100.00
20023;BME280;10172;42.054;24.546;2023-01-30T01:56:38;98452.13;;;1.95;100.00
20023;BME280;10172;42.054;24.546;2023-01-30T01:59:11;98502.59;;;2.03;100.00
20023;BME280;10172;42.054;24.546;2023-01-30T02:01:38;98490.09;;;2.11;100.00
20023;BME280;10172;42.054;24.546;2023-01-30T02:04:05;98496.22;;;2.12;100.00
20023;BME280;10172;42.054;24.546;2023-01-30T02:06:35;98461.56;;;2.28;100.00
20023;BME280;10172;42.054;24.546;2023-01-30T02:09:05;98441.59;;;1.97;100.00
20023;BME280;10172;42.054;24.546;2023-01-30T02:11:52;98482.03;;;2.19;100.00
20023;BME280;10172;42.054;24.546;2023-01-30T02:14:19;98464.94;;;1.76;100.00
20023;BME280;10172;42.054;24.546;2023-01-30T02:16:45;98458.72;;;1.80;100.00
20023;BME280;10172;42.054;24.546;2023-01-30T02:22:28;98474.75;;;1.99;100.00
20023;BME280;10172;42.054;24.546;2023-01-30T02:30:21;98473.03;;;1.98;100.00
20023;BME280;10172;42.054;24.546;2023-01-30T02:36:05;98463.00;;;1.83;100.00
20023;BME280;10172;42.054;24.546;2023-01-30T02:38:42;98459.28;;;2.18;100.00
20023;BME280;10172;42.054;24.546;2023-01-30T02:44:03;98468.50;;;1.75;100.00
20023;BME280;10172;42.054;24.546;2023-01-30T02:46:50;98457.22;;;1.72;100.00
20023;BME280;10172;42.054;24.546;2023-01-30T02:52:05;98457.59;;;1.89;100.00
20023;BME280;10172;42.054;24.546;2023-01-30T02:54:32;98362.41;;;1.27;100.00
20023;BME280;10172;42.054;24.546;2023-01-30T02:56:58;98449.09;;;1.81;100.00
20023;BME280;10172;42.054;24.546;2023-01-30T02:59:41;98463.22;;;2.05;100.00
20023;BME280;10172;42.054;24.546;2023-01-30T03:05:19;98469.69;;;1.64;100.00
20023;BME280;10172;42.054;24.546;2023-01-30T03:08:24;98461.81;;;1.93;100.00
20023;BME280;10172;42.054;24.546;2023-01-30T03:10:57;98466.81;;;2.01;100.00
20023;BME280;10172;42.054;24.546;2023-01-30T03:13:37;98459.78;;;1.73;100.00
20023;BME280;10172;42.054;24.546;2023-01-30T03:16:24;98406.63;;;1.68;100.00
20023;BME280;10172;42.054;24.546;2023-01-30T03:18:52;98468.53;;;1.74;100.00
20023;BME280;10172;42.054;24.546;2023-01-30T03:21:18;98452.63;;;2.08;100.00
20023;BME280;10172;42.054;24.546;2023-01-30T03:23:45;98449.34;;;1.43;100.00
20023;BME280;10172;42.054;24.546;2023-01-30T03:26:18;98446.88;;;1.95;100.00
20023;BME280;10172;42.054;24.546;2023-01-30T03:28:48;98452.59;;;1.80;100.00
20023;BME280;10172;42.054;24.546;2023-01-30T03:31:14;98449.13;;;1.79;100.00
20023;BME280;10172;42.054;24.546;2023-01-30T03:33:40;98387.06;;;1.51;100.00
20023;BME280;10172;42.054;24.546;2023-01-30T03:36:06;98453.28;;;2.14;100.00
20023;BME280;10172;42.054;24.546;2023-01-30T03:38:33;98407.94;;;1.83;100.00
20023;BME280;10172;42.054;24.546;2023-01-30T03:41:00;98392.09;;;1.57;100.00
20023;BME280;10172;42.054;24.546;2023-01-30T03:43:25;98445.63;;;1.50;100.00
20023;BME280;10172;42.054;24.546;2023-01-30T03:45:51;98434.34;;;1.77;100.00
20023;BME280;10172;42.054;24.546;2023-01-30T03:48:16;98431.38;;;2.15;100.00
20023;BME280;10172;42.054;24.546;2023-01-30T03:50:42;98362.22;;;1.05;100.00
20023;BME280;10172;42.054;24.546;2023-01-30T03:53:07;98437.50;;;1.59;100.00
20023;BME280;10172;42.054;24.546;2023-01-30T03:55:33;98416.44;;;1.62;100.00
20023;BME280;10172;42.054;24.546;2023-01-30T03:57:58;98425.47;;;1.52;100.00
20023;BME280;10172;42.054;24.546;2023-01-30T04:00:24;98439.66;;;1.45;100.00
20023;BME280;10172;42.054;24.546;2023-01-30T04:02:50;98441.13;;;1.55;100.00
20023;BME280;10172;42.054;24.546;2023-01-30T04:05:16;98450.00;;;1.51;100.00
20023;BME280;10172;42.054;24.546;2023-01-30T04:07:42;98418.25;;;1.60;100.00
20023;BME280;10172;42.054;24.546;2023-01-30T04:10:08;98430.81;;;1.49;100.00
20023;BME280;10172;42.054;24.546;2023-01-30T04:12:34;98420.06;;;1.58;100.00
20023;BME280;10172;42.054;24.546;2023-01-30T04:14:59;98427.03;;;1.28;100.00
20023;BME280;10172;42.054;24.546;2023-01-30T04:17:24;98361.56;;;0.97;100.00
20023;BME280;10172;42.054;24.546;2023-01-30T04:19:50;98441.56;;;1.40;100.00
20023;BME280;10172;42.054;24.546;2023-01-30T04:22:15;98429.88;;;1.51;100.00
20023;BME280;10172;42.054;24.546;2023-01-30T04:24:41;98437.13;;;1.71;100.00
20023;BME280;10172;42.054;24.546;2023-01-30T04:27:06;98415.50;;;1.64;100.00
20023;BME280;10172;42.054;24.546;2023-01-30T04:29:33;98345.88;;;1.27;100.00
20023;BME280;10172;42.054;24.546;2023-01-30T04:31:59;98427.13;;;2.11;100.00
20023;BME280;10172;42.054;24.546;2023-01-30T04:34:24;98432.59;;;1.76;100.00
20023;BME280;10172;42.054;24.546;2023-01-30T04:36:49;98439.09;;;2.20;100.00
20023;BME280;10172;42.054;24.546;2023-01-30T04:39:15;98369.97;;;1.67;100.00
20023;BME280;10172;42.054;24.546;2023-01-30T04:41:41;98412.00;;;2.46;100.00
20023;BME280;10172;42.054;24.546;2023-01-30T04:44:06;98415.34;;;1.69;100.00
20023;BME280;10172;42.054;24.546;2023-01-30T04:46:32;98407.03;;;1.55;100.00
20023;BME280;10172;42.054;24.546;2023-01-30T04:48:57;98360.56;;;1.32;100.00
20023;BME280;10172;42.054;24.546;2023-01-30T04:51:23;98445.09;;;1.39;100.00
20023;BME280;10172;42.054;24.546;2023-01-30T04:53:48;98419.66;;;1.11;100.00
20023;BME280;10172;42.054;24.546;2023-01-30T04:56:13;98432.81;;;1.70;100.00
20023;BME280;10172;42.054;24.546;2023-01-30T04:58:39;98419.25;;;1.27;100.00
20023;BME280;10172;42.054;24.546;2023-01-30T05:01:25;98437.84;;;1.47;100.00
20023;BME280;10172;42.054;24.546;2023-01-30T05:03:54;98427.91;;;1.59;100.00
20023;BME280;10172;42.054;24.546;2023-01-30T05:06:20;98410.25;;;1.64;100.00
20023;BME280;10172;42.054;24.546;2023-01-30T05:08:54;98425.38;;;1.55;100.00
20023;BME280;10172;42.054;24.546;2023-01-30T05:11:21;98425.94;;;1.66;100.00
20023;BME280;10172;42.054;24.546;2023-01-30T05:13:47;98419.03;;;1.91;100.00
20023;BME280;10172;42.054;24.546;2023-01-30T05:16:14;98437.13;;;1.71;100.00
20023;BME280;10172;42.054;24.546;2023-01-30T05:18:40;98430.72;;;1.52;100.00
20023;BME280;10172;42.054;24.546;2023-01-30T05:21:09;98447.53;;;1.74;100.00
20023;BME280;10172;42.054;24.546;2023-01-30T05:23:34;98443.53;;;1.90;100.00
20023;BME280;10172;42.054;24.546;2023-01-30T05:26:00;98438.13;;;1.96;100.00
20023;BME280;10172;42.054;24.546;2023-01-30T05:28:26;98426.38;;;1.80;100.00
20023;BME280;10172;42.054;24.546;2023-01-30T05:30:53;98441.28;;;1.49;100.00
20023;BME280;10172;42.054;24.546;2023-01-30T05:33:18;98436.16;;;1.75;100.00
20023;BME280;10172;42.054;24.546;2023-01-30T05:35:48;98381.44;;;1.91;100.00
20023;BME280;10172;42.054;24.546;2023-01-30T05:38:14;98415.31;;;1.98;100.00
20023;BME280;10172;42.054;24.546;2023-01-30T05:40:39;98395.88;;;1.76;99.41
20023;BME280;10172;42.054;24.546;2023-01-30T05:43:04;98413.28;;;2.06;100.00
20023;BME280;10172;42.054;24.546;2023-01-30T05:45:30;98424.41;;;1.59;99.74
20023;BME280;10172;42.054;24.546;2023-01-30T05:47:55;98421.31;;;1.74;100.00
20023;BME280;10172;42.054;24.546;2023-01-30T05:50:21;98364.88;;;1.04;100.00
20023;BME280;10172;42.054;24.546;2023-01-30T05:52:46;98421.38;;;1.43;100.00
20023;BME280;10172;42.054;24.546;2023-01-30T05:55:12;98357.06;;;1.02;100.00
20023;BME280;10172;42.054;24.546;2023-01-30T05:57:37;98374.88;;;1.20;100.00
20023;BME280;10172;42.054;24.546;2023-01-30T06:00:04;98412.69;;;1.41;100.00
20023;BME280;10172;42.054;24.546;2023-01-30T06:02:30;98433.41;;;1.49;100.00
20023;BME280;10172;42.054;24.546;2023-01-30T06:04:55;98429.69;;;1.57;100.00
20023;BME280;10172;42.054;24.546;2023-01-30T06:07:21;98425.84;;;1.69;100.00
20023;BME280;10172;42.054;24.546;2023-01-30T06:09:46;98427.84;;;1.61;100.00
20023;BME280;10172;42.054;24.546;2023-01-30T06:12:12;98367.63;;;0.99;100.00
20023;BME280;10172;42.054;24.546;2023-01-30T06:14:37;98428.56;;;1.66;100.00
20023;BME280;10172;42.054;24.546;2023-01-30T06:17:03;98434.59;;;1.68;100.00
20023;BME280;10172;42.054;24.546;2023-01-30T06:19:28;98436.66;;;1.58;99.43
20023;BME280;10172;42.054;24.546;2023-01-30T06:21:54;98425.28;;;1.58;100.00
20023;BME280;10172;42.054;24.546;2023-01-30T06:24:19;98447.78;;;1.36;100.00
20023;BME280;10172;42.054;24.546;2023-01-30T06:26:45;98404.69;;;1.46;100.00
20023;BME280;10172;42.054;24.546;2023-01-30T06:29:10;98426.94;;;1.62;99.45
20023;BME280;10172;42.054;24.546;2023-01-30T06:31:36;98434.78;;;1.33;100.00
20023;BME280;10172;42.054;24.546;2023-01-30T06:34:01;98410.47;;;1.28;100.00
20023;BME280;10172;42.054;24.546;2023-01-30T06:36:27;98433.00;;;1.35;100.00
20023;BME280;10172;42.054;24.546;2023-01-30T06:38:52;98425.94;;;1.37;100.00
20023;BME280;10172;42.054;24.546;2023-01-30T06:41:18;98440.47;;;1.76;100.00
20023;BME280;10172;42.054;24.546;2023-01-30T06:43:44;98452.72;;;1.46;100.00
20023;BME280;10172;42.054;24.546;2023-01-30T06:46:09;98455.31;;;1.48;100.00
20023;BME280;10172;42.054;24.546;2023-01-30T06:48:35;98433.84;;;1.64;99.68
20023;BME280;10172;42.054;24.546;2023-01-30T06:51:00;98392.78;;;1.05;100.00
20023;BME280;10172;42.054;24.546;2023-01-30T06:53:25;98437.78;;;1.50;100.00
20023;BME280;10172;42.054;24.546;2023-01-30T06:55:58;98456.50;;;1.38;100.00
20023;BME280;10172;42.054;24.546;2023-01-30T06:58:24;98386.13;;;0.93;100.00
20023;BME280;10172;42.054;24.546;2023-01-30T07:00:50;98452.34;;;1.89;100.00
20023;BME280;10172;42.054;24.546;2023-01-30T07:03:16;98443.63;;;1.59;100.00
20023;BME280;10172;42.054;24.546;2023-01-30T07:05:44;98444.66;;;1.54;100.00
20023;BME280;10172;42.054;24.546;2023-01-30T07:08:10;98448.44;;;1.44;100.00
20023;BME280;10172;42.054;24.546;2023-01-30T07:10:36;98449.84;;;1.55;100.00
20023;BME280;10172;42.054;24.546;2023-01-30T07:13:02;98398.97;;;1.02;100.00
20023;BME280;10172;42.054;24.546;2023-01-30T07:15:28;98448.19;;;1.53;100.00
20023;BME280;10172;42.054;24.546;2023-01-30T07:17:57;98449.22;;;1.47;100.00
20023;BME280;10172;42.054;24.546;2023-01-30T07:20:22;98390.78;;;1.71;100.00
20023;BME280;10172;42.054;24.546;2023-01-30T07:22:52;98407.50;;;1.40;100.00
20023;BME280;10172;42.054;24.546;2023-01-30T07:25:19;98459.75;;;1.75;100.00
20023;BME280;10172;42.054;24.546;2023-01-30T07:27:52;98437.13;;;1.71;100.00
20023;BME280;10172;42.054;24.546;2023-01-30T07:30:17;98471.28;;;1.39;100.00
20023;BME280;10172;42.054;24.546;2023-01-30T07:32:43;98456.38;;;1.99;100.00
20023;BME280;10172;42.054;24.546;2023-01-30T07:35:09;98451.81;;;1.76;100.00
20023;BME280;10172;42.054;24.546;2023-01-30T07:37:34;98454.81;;;1.35;100.00
20023;BME280;10172;42.054;24.546;2023-01-30T07:40:00;98387.31;;;1.12;100.00
20023;BME280;10172;42.054;24.546;2023-01-30T07:42:25;98456.94;;;1.52;100.00
20023;BME280;10172;42.054;24.546;2023-01-30T07:44:51;98457.94;;;1.48;100.00
20023;BME280;10172;42.054;24.546;2023-01-30T07:47:16;98459.34;;;1.59;100.00
20023;BME280;10172;42.054;24.546;2023-01-30T07:49:44;98457.47;;;1.63;100.00
20023;BME280;10172;42.054;24.546;2023-01-30T07:52:09;98409.66;;;1.55;100.00
20023;BME280;10172;42.054;24.546;2023-01-30T07:54:35;98462.16;;;1.53;100.00
20023;BME280;10172;42.054;24.546;2023-01-30T07:57:01;98400.50;;;1.09;100.00
20023;BME280;10172;42.054;24.546;2023-01-30T07:59:26;98437.13;;;1.71;100.00
20023;BME280;10172;42.054;24.546;2023-01-30T08:01:52;98461.53;;;1.44;100.00
20023;BME280;10172;42.054;24.546;2023-01-30T08:04:17;98463.50;;;1.36;100.00
20023;BME280;10172;42.054;24.546;2023-01-30T08:06:43;98453.91;;;1.05;100.00
20023;BME280;10172;42.054;24.546;2023-01-30T08:09:08;98434.94;;;0.96;100.00
20023;BME280;10172;42.054;24.546;2023-01-30T08:11:34;98452.38;;;1.28;100.00
20023;BME280;10172;42.054;24.546;2023-01-30T08:13:59;98445.38;;;1.30;100.00
20023;BME280;10172;42.054;24.546;2023-01-30T08:16:25;98442.28;;;1.14;100.00
20023;BME280;10172;42.054;24.546;2023-01-30T08:18:51;98437.22;;;1.68;100.00
20023;BME280;10172;42.054;24.546;2023-01-30T08:21:16;98428.16;;;1.50;100.00
20023;BME280;10172;42.054;24.546;2023-01-30T08:23:41;98435.63;;;1.64;100.00
20023;BME280;10172;42.054;24.546;2023-01-30T08:26:07;98451.72;;;1.21;100.00
20023;BME280;10172;42.054;24.546;2023-01-30T08:28:33;98433.72;;;1.40;100.00
20023;BME280;10172;42.054;24.546;2023-01-30T08:30:58;98413.00;;;1.31;100.00
20023;BME280;10172;42.054;24.546;2023-01-30T08:33:24;98425.16;;;1.33;100.00
20023;BME280;10172;42.054;24.546;2023-01-30T08:35:49;98451.97;;;1.12;100.00
20023;BME280;10172;42.054;24.546;2023-01-30T08:38:17;98437.44;;;1.00;100.00
20023;BME280;10172;42.054;24.546;2023-01-30T08:40:43;98438.16;;;1.65;100.00
20023;BME280;10172;42.054;24.546;2023-01-30T08:43:08;98366.94;;;0.93;100.00
20023;BME280;10172;42.054;24.546;2023-01-30T08:45:34;98422.19;;;1.45;100.00
20023;BME280;10172;42.054;24.546;2023-01-30T08:48:01;98405.09;;;1.32;100.00
20023;BME280;10172;42.054;24.546;2023-01-30T08:50:27;98431.03;;;1.70;100.00
20023;BME280;10172;42.054;24.546;2023-01-30T08:52:53;98444.75;;;1.20;100.00
20023;BME280;10172;42.054;24.546;2023-01-30T08:55:18;98423.78;;;1.51;100.00
20023;BME280;10172;42.054;24.546;2023-01-30T08:57:45;98418.31;;;1.57;100.00
20023;BME280;10172;42.054;24.546;2023-01-30T09:00:11;98425.22;;;1.32;100.00
20023;BME280;10172;42.054;24.546;2023-01-30T09:02:37;98377.81;;;1.08;100.00
20023;BME280;10172;42.054;24.546;2023-01-30T09:05:03;98396.00;;;1.44;100.00
20023;BME280;10172;42.054;24.546;2023-01-30T09:07:29;98369.44;;;0.97;100.00
20023;BME280;10172;42.054;24.546;2023-01-30T09:09:54;98415.69;;;1.28;100.00
20023;BME280;10172;42.054;24.546;2023-01-30T09:12:20;98433.06;;;1.32;100.00
20023;BME280;10172;42.054;24.546;2023-01-30T09:14:46;98407.56;;;1.07;100.00
20023;BME280;10172;42.054;24.546;2023-01-30T09:17:12;98408.13;;;1.48;100.00
20023;BME280;10172;42.054;24.546;2023-01-30T09:19:37;98420.84;;;1.60;100.00
20023;BME280;10172;42.054;24.546;2023-01-30T09:22:03;98354.28;;;1.38;100.00
20023;BME280;10172;42.054;24.546;2023-01-30T09:24:29;98407.97;;;1.54;100.00
20023;BME280;10172;42.054;24.546;2023-01-30T09:26:56;98394.47;;;1.37;100.00
20023;BME280;10172;42.054;24.546;2023-01-30T09:29:26;98394.09;;;1.49;100.00
20023;BME280;10172;42.054;24.546;2023-01-30T09:31:52;98394.22;;;1.46;100.00
20023;BME280;10172;42.054;24.546;2023-01-30T09:34:18;98381.47;;;1.34;100.00
20023;BME280;10172;42.054;24.546;2023-01-30T09:36:43;98368.00;;;1.46;100.00
20023;BME280;10172;42.054;24.546;2023-01-30T09:39:09;98374.69;;;1.56;100.00
20023;BME280;10172;42.054;24.546;2023-01-30T09:41:56;98379.44;;;1.43;100.00
20023;BME280;10172;42.054;24.546;2023-01-30T09:47:11;98376.09;;;1.66;100.00
20023;BME280;10172;42.054;24.546;2023-01-30T09:53:06;98363.44;;;1.80;100.00
20023;BME280;10172;42.054;24.546;2023-01-30T09:55:39;98357.28;;;2.07;100.00
20023;BME280;10172;42.054;24.546;2023-01-30T09:58:32;98347.84;;;2.28;98.45
20023;BME280;10172;42.054;24.546;2023-01-30T10:01:05;98347.16;;;1.69;100.00
20023;BME280;10172;42.054;24.546;2023-01-30T10:03:41;98344.03;;;1.58;100.00
20023;BME280;10172;42.054;24.546;2023-01-30T10:06:13;98317.09;;;1.53;100.00
20023;BME280;10172;42.054;24.546;2023-01-30T10:08:58;98345.94;;;1.80;100.00
20023;BME280;10172;42.054;24.546;2023-01-30T10:17:30;98327.22;;;1.91;100.00
20023;BME280;10172;42.054;24.546;2023-01-30T10:25:49;98251.97;;;1.67;100.00
20023;BME280;10172;42.054;24.546;2023-01-30T10:28:28;98291.59;;;1.84;100.00
20023;BME280;10172;42.054;24.546;2023-01-30T10:31:10;98302.63;;;2.45;99.00
20023;BME280;10172;42.054;24.546;2023-01-30T10:34:22;98282.84;;;2.10;97.67
20023;BME280;10172;42.054;24.546;2023-01-30T10:39:40;98270.38;;;2.16;97.15
20023;BME280;10172;42.054;24.546;2023-01-30T10:42:12;98268.66;;;1.91;97.52
20023;BME280;10172;42.054;24.546;2023-01-30T10:44:39;98266.78;;;1.94;98.67
20023;BME280;10172;42.054;24.546;2023-01-30T10:47:36;98257.25;;;1.65;98.55
20023;BME280;10172;42.054;24.546;2023-01-30T10:52:44;98242.81;;;2.29;98.55
20023;BME280;10172;42.054;24.546;2023-01-30T10:55:34;98207.28;;;1.44;98.43
20023;BME280;10172;42.054;24.546;2023-01-30T11:01:00;98239.22;;;2.07;97.76
20023;BME280;10172;42.054;24.546;2023-01-30T11:03:45;98228.38;;;2.16;96.82
20023;BME280;10172;42.054;24.546;2023-01-30T11:06:22;98228.00;;;1.77;96.79
20023;BME280;10172;42.054;24.546;2023-01-30T11:08:49;98204.66;;;1.70;98.60
20023;BME280;10172;42.054;24.546;2023-01-30T11:11:25;98217.06;;;1.90;97.83
20023;BME280;10172;42.054;24.546;2023-01-30T11:14:03;98147.94;;;1.41;97.57
20023;BME280;10172;42.054;24.546;2023-01-30T11:16:30;98193.03;;;1.77;98.02
20023;BME280;10172;42.054;24.546;2023-01-30T11:18:55;98140.41;;;1.57;98.80
20023;BME280;10172;42.054;24.546;2023-01-30T11:21:28;98117.53;;;1.62;98.03
20023;BME280;10172;42.054;24.546;2023-01-30T11:23:55;98172.38;;;2.17;97.17
20023;BME280;10172;42.054;24.546;2023-01-30T11:26:33;98180.22;;;1.68;97.27
20023;BME280;10172;42.054;24.546;2023-01-30T11:31:51;98165.06;;;2.02;96.31
20023;BME280;10172;42.054;24.546;2023-01-30T11:34:20;98164.41;;;1.71;97.08
20023;BME280;10172;42.054;24.546;2023-01-30T11:36:46;98086.44;;;1.27;97.45
20023;BME280;10172;42.054;24.546;2023-01-30T11:41:42;98146.91;;;2.19;96.31
20023;BME280;10172;42.054;24.546;2023-01-30T11:44:09;98150.19;;;2.03;96.28
20023;BME280;10172;42.054;24.546;2023-01-30T11:46:37;98135.22;;;2.05;96.73
20023;BME280;10172;42.054;24.546;2023-01-30T11:49:13;98121.56;;;1.95;96.83
20023;BME280;10172;42.054;24.546;2023-01-30T11:51:42;98110.19;;;1.96;96.23
20023;BME280;10172;42.054;24.546;2023-01-30T11:54:14;98121.16;;;2.07;95.92
20023;BME280;10172;42.054;24.546;2023-01-30T11:56:47;98060.66;;;1.87;95.14
20023;BME280;10172;42.054;24.546;2023-01-30T11:59:37;98111.34;;;2.12;97.33
20023;BME280;10172;42.054;24.546;2023-01-30T12:04:46;98101.34;;;1.74;98.02
20023;BME280;10172;42.054;24.546;2023-01-30T12:07:22;98099.78;;;1.70;98.65
20023;BME280;10172;42.054;24.546;2023-01-30T12:09:48;98058.44;;;1.52;99.04
20023;BME280;10172;42.054;24.546;2023-01-30T12:15:27;98074.94;;;1.80;99.00
20023;BME280;10172;42.054;24.546;2023-01-30T12:18:22;98089.19;;;1.96;99.29
20023;BME280;10172;42.054;24.546;2023-01-30T12:21:01;98078.41;;;2.04;99.44
20023;BME280;10172;42.054;24.546;2023-01-30T12:26:25;98074.34;;;1.95;100.00
20023;BME280;10172;42.054;24.546;2023-01-30T12:32:08;98007.75;;;1.53;99.80
20023;BME280;10172;42.054;24.546;2023-01-30T12:34:36;98062.31;;;2.36;99.35
20023;BME280;10172;42.054;24.546;2023-01-30T12:45:18;98039.94;;;1.81;99.39
20023;BME280;10172;42.054;24.546;2023-01-30T12:53:20;98053.94;;;2.26;97.77
20023;BME280;10172;42.054;24.546;2023-01-30T12:55:56;98002.16;;;1.85;98.62
20023;BME280;10172;42.054;24.546;2023-01-30T12:59:07;98040.16;;;2.43;96.73
20023;BME280;10172;42.054;24.546;2023-01-30T13:18:12;98019.25;;;2.18;98.24
20023;BME280;10172;42.054;24.546;2023-01-30T13:23:17;98002.69;;;1.95;99.38
20023;BME280;10172;42.054;24.546;2023-01-30T13:25:58;98009.09;;;2.32;98.33
20023;BME280;10172;42.054;24.546;2023-01-30T13:28:30;98006.69;;;2.26;97.77
20023;BME280;10172;42.054;24.546;2023-01-30T13:30:57;98009.25;;;2.28;97.51
20023;BME280;10172;42.054;24.546;2023-01-30T13:33:29;98001.25;;;2.53;95.84
20023;BME280;10172;42.054;24.546;2023-01-30T13:38:28;97944.59;;;1.82;94.49
20023;BME280;10172;42.054;24.546;2023-01-30T13:40:57;97989.72;;;2.13;95.91
20023;BME280;10172;42.054;24.546;2023-01-30T13:45:55;97988.31;;;2.26;93.39
20023;BME280;10172;42.054;24.546;2023-01-30T13:56:30;97924.66;;;1.78;95.72
20023;BME280;10172;42.054;24.546;2023-01-30T14:09:41;97976.66;;;2.55;96.55
20023;BME280;10172;42.054;24.546;2023-01-30T14:12:24;97983.06;;;2.48;97.63
20023;BME280;10172;42.054;24.546;2023-01-30T14:17:36;97991.25;;;2.19;94.67
20023;BME280;10172;42.054;24.546;2023-01-30T14:20:14;97993.38;;;2.09;95.16
20023;BME280;10172;42.054;24.546;2023-01-30T14:22:51;97975.66;;;2.14;94.28
20023;BME280;10172;42.054;24.546;2023-01-30T14:32:56;97974.81;;;2.35;94.68
20023;BME280;10172;42.054;24.546;2023-01-30T14:35:24;97977.38;;;2.59;93.01
20023;BME280;10172;42.054;24.546;2023-01-30T14:38:03;97978.28;;;3.20;89.81
20023;BME280;10172;42.054;24.546;2023-01-30T14:40:34;97943.94;;;3.04;87.95
20023;BME280;10172;42.054;24.546;2023-01-30T14:48:32;97955.16;;;2.87;90.31
20023;BME280;10172;42.054;24.546;2023-01-30T14:51:34;97900.13;;;2.84;87.31
20023;BME280;10172;42.054;24.546;2023-01-30T14:54:28;97961.00;;;2.74;90.28
20023;BME280;10172;42.054;24.546;2023-01-30T14:57:02;97964.13;;;2.62;91.29
20023;BME280;10172;42.054;24.546;2023-01-30T15:09:59;97977.19;;;3.64;83.98
20023;BME280;10172;42.054;24.546;2023-01-30T15:15:16;97972.84;;;3.24;85.85
20023;BME280;10172;42.054;24.546;2023-01-30T15:17:59;97920.75;;;3.90;85.08
20023;BME280;10172;42.054;24.546;2023-01-30T15:29:28;97965.78;;;3.84;84.89
20023;BME280;10172;42.054;24.546;2023-01-30T15:31:59;97966.09;;;3.95;83.85
20023;BME280;10172;42.054;24.546;2023-01-30T15:34:30;97923.41;;;4.26;82.55
20023;BME280;10172;42.054;24.546;2023-01-30T15:36:58;97953.16;;;4.63;81.84
20023;BME280;10172;42.054;24.546;2023-01-30T15:39:27;97968.91;;;4.46;82.48
20023;BME280;10172;42.054;24.546;2023-01-30T15:41:59;97955.97;;;4.95;80.64
20023;BME280;10172;42.054;24.546;2023-01-30T15:49:54;97973.63;;;5.94;76.70